createdAt,value
2022-10-17T00:00:27.618Z,16.96
2022-10-17T00:01:30.660Z,16.95
2022-10-17T00:02:32.317Z,16.94
2022-10-17T00:03:35.200Z,16.93
2022-10-17T00:04:38.064Z,16.94
2022-10-17T00:05:41.934Z,16.94
2022-10-17T00:06:43.667Z,16.96
2022-10-17T00:07:46.153Z,16.96
2022-10-17T00:08:47.665Z,16.95
2022-10-17T00:09:50.213Z,16.97
2022-10-17T00:11:00.162Z,16.97
2022-10-17T00:12:03.396Z,16.97
2022-10-17T00:13:05.659Z,16.98
2022-10-17T00:14:08.186Z,17.00
2022-10-17T00:15:14.912Z,17.00
2022-10-17T00:16:24.812Z,17.00
2022-10-17T00:17:26.675Z,17.01
2022-10-17T00:18:29.361Z,17.01
2022-10-17T00:19:30.956Z,17.01
2022-10-17T00:20:37.036Z,17.00
2022-10-17T00:21:39.503Z,17.01
2022-10-17T00:22:41.040Z,17.01
2022-10-17T00:23:43.607Z,17.01
2022-10-17T00:24:45.245Z,17.01
2022-10-17T00:25:47.747Z,17.00
2022-10-17T00:26:49.304Z,17.00
2022-10-17T00:27:51.806Z,17.00
2022-10-17T00:28:53.711Z,17.01
2022-10-17T00:29:56.287Z,17.03
2022-10-17T00:30:59.108Z,17.04
2022-10-17T00:32:01.626Z,17.04
2022-10-17T00:33:03.328Z,17.05
2022-10-17T00:34:05.846Z,17.05
2022-10-17T00:35:08.550Z,17.05
2022-10-17T00:36:14.671Z,17.05
2022-10-17T00:37:16.199Z,17.05
2022-10-17T00:38:18.681Z,17.08
2022-10-17T00:39:20.671Z,17.08
2022-10-17T00:40:23.255Z,17.07
2022-10-17T00:41:28.289Z,17.07
2022-10-17T00:42:31.155Z,17.06
2022-10-17T00:43:55.242Z,17.06
2022-10-17T00:45:03.539Z,17.04
2022-10-17T00:46:05.163Z,17.03
2022-10-17T00:47:13.786Z,17.03
2022-10-17T00:48:18.002Z,17.03
2022-10-17T00:49:24.390Z,17.04
2022-10-17T00:50:26.212Z,17.04
2022-10-17T00:51:36.572Z,17.03
2022-10-17T00:52:38.342Z,17.03
2022-10-17T00:53:41.589Z,17.03
2022-10-17T00:54:45.919Z,17.03
2022-10-17T00:55:52.176Z,17.03
2022-10-17T00:56:54.551Z,17.03
2022-10-17T00:57:58.225Z,17.01
2022-10-17T00:59:00.275Z,17.02
2022-10-17T01:00:05.633Z,17.01
2022-10-17T01:01:11.040Z,17.01
2022-10-17T01:02:16.359Z,17.01
2022-10-17T01:03:17.994Z,16.99
2022-10-17T01:04:21.084Z,17.00
2022-10-17T01:05:22.899Z,16.99
2022-10-17T01:06:25.386Z,17.00
2022-10-17T01:07:33.213Z,16.99
2022-10-17T01:08:39.829Z,16.98
2022-10-17T01:09:43.198Z,16.96
2022-10-17T01:10:55.698Z,16.97
2022-10-17T01:12:07.344Z,16.96
2022-10-17T01:13:15.171Z,16.94
2022-10-17T01:14:26.676Z,16.94
2022-10-17T01:15:40.285Z,16.93
2022-10-17T01:16:51.991Z,16.93
2022-10-17T01:18:05.573Z,16.93
2022-10-17T01:19:32.560Z,16.92
2022-10-17T01:21:01.408Z,16.91
2022-10-17T01:22:08.875Z,16.91
2022-10-17T01:23:29.046Z,16.89
2022-10-17T01:25:02.657Z,16.88
2022-10-17T01:26:17.212Z,16.87
2022-10-17T01:27:33.409Z,16.86
2022-10-17T01:29:05.755Z,16.85
2022-10-17T01:30:53.048Z,16.85
2022-10-17T01:32:01.873Z,16.84
2022-10-17T01:33:10.545Z,16.84
2022-10-17T01:34:19.840Z,16.85
2022-10-17T01:35:26.690Z,16.85
2022-10-17T01:36:38.897Z,16.85
2022-10-17T01:37:47.024Z,16.85
2022-10-17T01:38:54.085Z,16.86
2022-10-17T01:40:07.221Z,16.85
2022-10-17T01:41:17.729Z,16.85
2022-10-17T01:42:27.534Z,16.85
2022-10-17T01:43:34.789Z,16.85
2022-10-17T01:44:43.796Z,16.84
2022-10-17T01:45:50.471Z,16.85
2022-10-17T01:46:59.626Z,16.85
2022-10-17T01:48:07.155Z,16.84
2022-10-17T01:49:12.023Z,16.83
2022-10-17T01:50:18.237Z,16.84
2022-10-17T01:51:27.522Z,16.84
2022-10-17T01:52:34.454Z,16.85
2022-10-17T01:53:40.480Z,16.84
2022-10-17T01:54:45.841Z,16.85
2022-10-17T01:55:50.866Z,16.84
2022-10-17T01:56:58.374Z,16.84
2022-10-17T01:58:06.402Z,16.82
2022-10-17T01:59:13.026Z,16.84
2022-10-17T02:00:20.289Z,16.83
2022-10-17T02:01:24.281Z,16.83
2022-10-17T02:02:29.727Z,16.82
2022-10-17T02:03:32.389Z,16.81
2022-10-17T02:04:36.137Z,16.81
2022-10-17T02:05:39.407Z,16.81
2022-10-17T02:06:41.863Z,16.82
2022-10-17T02:07:43.398Z,16.82
2022-10-17T02:08:48.565Z,16.81
2022-10-17T02:09:50.137Z,16.83
2022-10-17T02:10:57.952Z,16.83
2022-10-17T02:12:31.239Z,16.82
2022-10-17T02:13:46.674Z,16.81
2022-10-17T02:15:00.854Z,16.81
2022-10-17T02:16:16.740Z,16.82
2022-10-17T02:17:31.151Z,16.82
2022-10-17T02:18:48.889Z,16.79
2022-10-17T02:20:00.278Z,16.79
2022-10-17T02:21:09.390Z,16.78
2022-10-17T02:22:23.967Z,16.78
2022-10-17T02:23:35.237Z,16.77
2022-10-17T02:24:45.588Z,16.77
2022-10-17T02:25:54.889Z,16.77
2022-10-17T02:27:05.399Z,16.76
2022-10-17T02:28:21.792Z,16.75
2022-10-17T02:29:28.477Z,16.74
2022-10-17T02:30:37.944Z,16.73
2022-10-17T02:31:45.897Z,16.74
2022-10-17T02:32:53.670Z,16.73
2022-10-17T02:34:00.579Z,16.73
2022-10-17T02:35:06.688Z,16.74
2022-10-17T02:36:14.078Z,16.73
2022-10-17T02:37:23.041Z,16.73
2022-10-17T02:38:27.856Z,16.74
2022-10-17T02:39:32.558Z,16.74
2022-10-17T02:40:36.163Z,16.75
2022-10-17T02:41:39.822Z,16.74
2022-10-17T02:42:44.961Z,16.75
2022-10-17T02:43:50.104Z,16.74
2022-10-17T02:44:53.880Z,16.76
2022-10-17T02:45:58.292Z,16.76
2022-10-17T02:47:07.396Z,16.76
2022-10-17T02:48:16.217Z,16.77
2022-10-17T02:49:23.259Z,16.76
2022-10-17T02:50:32.903Z,16.75
2022-10-17T02:51:44.798Z,16.75
2022-10-17T02:52:53.703Z,16.76
2022-10-17T02:54:03.812Z,16.75
2022-10-17T02:55:14.441Z,16.75
2022-10-17T02:56:20.023Z,16.76
2022-10-17T02:57:28.235Z,16.75
2022-10-17T02:58:32.855Z,16.75
2022-10-17T02:59:37.534Z,16.75
2022-10-17T03:00:40.610Z,16.74
2022-10-17T03:01:43.708Z,16.74
2022-10-17T03:02:47.386Z,16.74
2022-10-17T03:03:49.890Z,16.74
2022-10-17T03:04:52.869Z,16.74
2022-10-17T03:05:55.499Z,16.75
2022-10-17T03:06:57.121Z,16.74
2022-10-17T03:07:59.664Z,16.73
2022-10-17T03:09:01.732Z,16.74
2022-10-17T03:10:06.780Z,16.73
2022-10-17T03:11:08.780Z,16.73
2022-10-17T03:12:11.277Z,16.74
2022-10-17T03:13:13.756Z,16.74
2022-10-17T03:14:16.244Z,16.75
2022-10-17T03:15:17.771Z,16.74
2022-10-17T03:16:20.245Z,16.76
2022-10-17T03:17:21.765Z,16.75
2022-10-17T03:18:24.430Z,16.76
2022-10-17T03:19:26.005Z,16.75
2022-10-17T03:20:29.956Z,16.76
2022-10-17T03:21:31.597Z,16.74
2022-10-17T03:22:34.516Z,16.73
2022-10-17T03:23:36.049Z,16.73
2022-10-17T03:24:38.564Z,16.73
2022-10-17T03:25:40.187Z,16.74
2022-10-17T03:26:42.745Z,16.74
2022-10-17T03:27:44.393Z,16.74
2022-10-17T03:28:48.552Z,16.74
2022-10-17T03:29:52.312Z,16.74
2022-10-17T03:30:54.828Z,16.75
2022-10-17T03:31:57.311Z,16.75
2022-10-17T03:32:59.160Z,16.74
2022-10-17T03:35:01.853Z,16.75
2022-10-17T03:36:10.061Z,16.71
2022-10-17T03:37:12.562Z,16.71
2022-10-17T03:38:14.234Z,16.71
2022-10-17T03:39:16.719Z,16.71
2022-10-17T03:40:18.576Z,16.71
2022-10-17T03:41:21.173Z,16.71
2022-10-17T03:42:23.691Z,16.73
2022-10-17T03:43:26.177Z,16.72
2022-10-17T03:44:28.002Z,16.73
2022-10-17T03:45:30.497Z,16.73
2022-10-17T03:46:32.061Z,16.73
2022-10-17T03:47:34.643Z,16.74
2022-10-17T03:48:36.230Z,16.74
2022-10-17T03:49:38.708Z,16.75
2022-10-17T03:50:40.257Z,16.75
2022-10-17T03:51:44.204Z,16.76
2022-10-17T03:52:46.864Z,16.76
2022-10-17T03:53:49.385Z,16.75
2022-10-17T03:54:51.527Z,16.75
2022-10-17T03:55:54.097Z,16.76
2022-10-17T03:58:03.108Z,16.77
2022-10-17T03:59:05.005Z,16.76
2022-10-17T04:00:08.951Z,16.77
2022-10-17T04:01:16.773Z,16.77
2022-10-17T04:02:21.983Z,16.78
2022-10-17T04:03:23.727Z,16.77
2022-10-17T04:04:26.342Z,16.77
2022-10-17T04:05:29.405Z,16.77
2022-10-17T04:06:32.256Z,16.79
2022-10-17T04:07:37.132Z,16.78
2022-10-17T04:08:39.840Z,16.79
2022-10-17T04:09:41.368Z,16.79
2022-10-17T04:10:43.892Z,16.79
2022-10-17T04:11:45.640Z,16.78
2022-10-17T04:12:48.132Z,16.78
2022-10-17T04:13:54.131Z,16.79
2022-10-17T04:14:56.649Z,16.79
2022-10-17T04:15:59.696Z,16.80
2022-10-17T04:17:02.240Z,16.80
2022-10-17T04:19:13.966Z,16.81
2022-10-17T04:20:16.618Z,16.81
2022-10-17T04:21:18.617Z,16.81
2022-10-17T04:22:21.174Z,16.80
2022-10-17T04:23:26.385Z,16.82
2022-10-17T04:24:31.144Z,16.80
2022-10-17T04:25:34.740Z,16.81
2022-10-17T04:26:39.232Z,16.81
2022-10-17T04:27:40.826Z,16.81
2022-10-17T04:28:43.304Z,16.81
2022-10-17T04:29:44.933Z,16.82
2022-10-17T04:30:49.017Z,16.84
2022-10-17T04:31:52.233Z,16.84
2022-10-17T04:32:54.709Z,16.84
2022-10-17T04:33:56.233Z,16.85
2022-10-17T04:34:58.733Z,16.87
2022-10-17T04:36:01.569Z,16.86
2022-10-17T04:37:05.372Z,16.88
2022-10-17T04:38:06.951Z,16.89
2022-10-17T04:39:10.837Z,16.90
2022-10-17T04:40:12.842Z,16.90
2022-10-17T04:41:17.617Z,16.91
2022-10-17T04:42:19.128Z,16.90
2022-10-17T04:43:21.643Z,16.90
2022-10-17T04:44:23.260Z,16.90
2022-10-17T04:45:25.845Z,16.91
2022-10-17T04:46:27.484Z,16.90
2022-10-17T04:47:30.062Z,16.90
2022-10-17T04:48:32.104Z,16.90
2022-10-17T04:49:34.642Z,16.91
2022-10-17T04:50:36.316Z,16.91
2022-10-17T04:51:39.546Z,16.93
2022-10-17T04:52:41.114Z,16.94
2022-10-17T04:53:44.480Z,16.95
2022-10-17T04:54:47.397Z,16.96
2022-10-17T04:55:49.964Z,16.96
2022-10-17T04:56:51.604Z,16.98
2022-10-17T04:57:54.337Z,16.98
2022-10-17T04:58:57.367Z,16.99
2022-10-17T04:59:58.999Z,16.99
2022-10-17T05:01:06.039Z,17.01
2022-10-17T05:02:07.823Z,17.02
2022-10-17T05:03:10.663Z,17.03
2022-10-17T05:04:13.184Z,17.04
2022-10-17T05:05:14.834Z,17.03
2022-10-17T05:06:18.616Z,17.04
2022-10-17T05:07:20.148Z,17.05
2022-10-17T05:08:22.718Z,17.05
2022-10-17T05:09:25.216Z,17.05
2022-10-17T05:10:28.079Z,17.04
2022-10-17T05:11:31.354Z,17.03
2022-10-17T05:12:32.930Z,17.04
2022-10-17T05:13:35.716Z,17.05
2022-10-17T05:14:37.394Z,17.05
2022-10-17T05:15:39.992Z,17.04
2022-10-17T05:16:42.821Z,17.04
2022-10-17T05:17:44.429Z,17.05
2022-10-17T05:18:52.691Z,17.04
2022-10-17T05:19:54.804Z,17.03
2022-10-17T05:20:57.723Z,17.02
2022-10-17T05:21:59.249Z,17.04
2022-10-17T05:23:01.989Z,17.02
2022-10-17T05:24:05.770Z,17.03
2022-10-17T05:25:09.139Z,17.03
2022-10-17T05:26:12.635Z,17.04
2022-10-17T05:27:15.165Z,17.03
2022-10-17T05:28:16.704Z,17.03
2022-10-17T05:29:19.234Z,17.03
2022-10-17T05:30:20.995Z,17.03
2022-10-17T05:31:23.505Z,17.04
2022-10-17T05:32:25.125Z,17.04
2022-10-17T05:33:27.642Z,17.03
2022-10-17T05:34:29.222Z,17.04
2022-10-17T05:35:31.774Z,17.04
2022-10-17T05:36:33.314Z,17.07
2022-10-17T05:37:36.161Z,17.07
2022-10-17T05:38:37.670Z,17.08
2022-10-17T05:39:40.154Z,17.08
2022-10-17T05:40:41.751Z,17.10
2022-10-17T05:41:45.647Z,17.10
2022-10-17T05:42:48.366Z,17.11
2022-10-17T05:43:50.944Z,17.11
2022-10-17T05:44:52.526Z,17.12
2022-10-17T05:45:55.935Z,17.11
2022-10-17T05:46:57.486Z,17.12
2022-10-17T05:48:00.021Z,17.11
2022-10-17T05:49:10.682Z,17.12
2022-10-17T05:50:24.041Z,17.11
2022-10-17T05:51:25.711Z,17.10
2022-10-17T05:52:28.616Z,17.09
2022-10-17T05:53:31.159Z,17.10
2022-10-17T05:54:33.750Z,17.09
2022-10-17T05:55:35.379Z,17.09
2022-10-17T05:56:37.883Z,17.08
2022-10-17T05:57:41.816Z,17.08
2022-10-17T05:58:55.158Z,17.09
2022-10-17T06:00:00.813Z,17.08
2022-10-17T06:01:14.971Z,17.07
2022-10-17T06:02:16.793Z,17.07
2022-10-17T06:03:19.557Z,17.06
2022-10-17T06:04:21.394Z,17.07
2022-10-17T06:05:24.504Z,17.07
2022-10-17T06:06:26.227Z,17.08
2022-10-17T06:07:29.212Z,17.08
2022-10-17T06:08:30.985Z,17.08
2022-10-17T06:09:33.565Z,17.07
2022-10-17T06:10:36.160Z,17.08
2022-10-17T06:11:37.770Z,17.06
2022-10-17T06:12:41.788Z,17.06
2022-10-17T06:13:43.575Z,17.06
2022-10-17T06:14:46.231Z,17.06
2022-10-17T06:15:47.909Z,17.06
2022-10-17T06:16:50.427Z,17.06
2022-10-17T06:17:51.946Z,17.06
2022-10-17T06:18:54.663Z,17.07
2022-10-17T06:19:56.562Z,17.08
2022-10-17T06:21:03.788Z,17.08
2022-10-17T06:22:06.238Z,17.08
2022-10-17T06:23:07.736Z,17.09
2022-10-17T06:24:10.257Z,17.10
2022-10-17T06:25:11.973Z,17.11
2022-10-17T06:26:14.740Z,17.11
2022-10-17T06:27:17.295Z,17.11
2022-10-17T06:28:20.161Z,17.11
2022-10-17T06:29:22.903Z,17.12
2022-10-17T06:30:24.643Z,17.12
2022-10-17T06:31:27.156Z,17.12
2022-10-17T06:32:29.070Z,17.14
2022-10-17T06:33:31.751Z,17.13
2022-10-17T06:34:33.285Z,17.14
2022-10-17T06:35:35.906Z,17.16
2022-10-17T06:36:37.543Z,17.18
2022-10-17T06:37:41.235Z,17.19
2022-10-17T06:38:44.173Z,17.19
2022-10-17T06:39:45.714Z,17.21
2022-10-17T06:40:48.328Z,17.22
2022-10-17T06:41:49.872Z,17.22
2022-10-17T06:42:52.550Z,17.23
2022-10-17T06:43:55.501Z,17.25
2022-10-17T06:44:58.130Z,17.25
2022-10-17T06:45:59.682Z,17.27
2022-10-17T06:47:02.263Z,17.28
2022-10-17T06:48:04.027Z,17.30
2022-10-17T06:49:07.386Z,17.33
2022-10-17T06:50:09.427Z,17.33
2022-10-17T06:51:12.200Z,17.34
2022-10-17T06:52:14.675Z,17.36
2022-10-17T06:53:17.242Z,17.36
2022-10-17T06:54:18.817Z,17.37
2022-10-17T06:55:23.076Z,17.39
2022-10-17T06:56:25.208Z,17.39
2022-10-17T06:57:28.666Z,17.39
2022-10-17T06:58:31.879Z,17.41
2022-10-17T06:59:35.722Z,17.41
2022-10-17T07:00:37.323Z,17.42
2022-10-17T07:01:41.889Z,17.43
2022-10-17T07:02:46.149Z,17.44
2022-10-17T07:03:49.644Z,17.47
2022-10-17T07:04:51.179Z,17.48
2022-10-17T07:05:53.776Z,17.50
2022-10-17T07:06:56.296Z,17.50
2022-10-17T07:07:57.921Z,17.52
2022-10-17T07:09:02.525Z,17.55
2022-10-17T07:10:08.401Z,17.56
2022-10-17T07:11:11.519Z,17.59
2022-10-17T07:12:14.101Z,17.59
2022-10-17T07:13:16.082Z,17.63
2022-10-17T07:14:18.545Z,17.65
2022-10-17T07:15:21.425Z,17.66
2022-10-17T07:16:24.225Z,17.67
2022-10-17T07:17:25.718Z,17.68
2022-10-17T07:18:28.278Z,17.70
2022-10-17T07:19:29.866Z,17.72
2022-10-17T07:20:32.497Z,17.71
2022-10-17T07:21:38.200Z,17.74
2022-10-17T07:22:41.827Z,17.74
2022-10-17T07:23:43.597Z,17.76
2022-10-17T07:24:46.208Z,17.77
2022-10-17T07:25:47.885Z,17.78
2022-10-17T07:26:50.425Z,17.81
2022-10-17T07:27:52.287Z,17.83
2022-10-17T07:28:56.415Z,17.85
2022-10-17T07:29:58.104Z,17.86
2022-10-17T07:31:06.387Z,17.89
2022-10-17T07:32:09.663Z,17.91
2022-10-17T07:33:11.213Z,17.93
2022-10-17T07:34:13.806Z,17.95
2022-10-17T07:35:15.717Z,17.99
2022-10-17T07:36:19.206Z,18.01
2022-10-17T07:37:20.740Z,18.03
2022-10-17T07:38:23.314Z,18.05
2022-10-17T07:39:24.993Z,18.08
2022-10-17T07:40:27.490Z,18.09
2022-10-17T07:41:29.039Z,18.11
2022-10-17T07:42:31.587Z,18.11
2022-10-17T07:43:33.782Z,18.13
2022-10-17T07:44:38.801Z,18.13
2022-10-17T07:45:41.126Z,18.14
2022-10-17T07:46:45.041Z,18.15
2022-10-17T07:47:47.551Z,18.16
2022-10-17T07:48:50.036Z,18.16
2022-10-17T07:49:51.617Z,18.17
2022-10-17T07:50:54.168Z,18.17
2022-10-17T07:51:55.913Z,18.19
2022-10-17T07:52:58.969Z,18.21
2022-10-17T07:54:00.515Z,18.21
2022-10-17T07:55:02.987Z,18.25
2022-10-17T07:56:07.719Z,18.25
2022-10-17T07:57:11.002Z,18.27
2022-10-17T07:58:13.821Z,18.30
2022-10-17T07:59:19.753Z,18.30
2022-10-17T08:00:21.591Z,18.31
2022-10-17T08:01:25.722Z,18.34
2022-10-17T08:02:29.194Z,18.35
2022-10-17T08:03:32.135Z,18.38
2022-10-17T08:04:34.590Z,18.40
2022-10-17T08:05:37.080Z,18.41
2022-10-17T08:06:39.001Z,18.43
2022-10-17T08:07:41.761Z,18.46
2022-10-17T08:08:45.027Z,18.50
2022-10-17T08:09:47.459Z,18.54
2022-10-17T08:10:49.943Z,18.58
2022-10-17T08:11:52.414Z,18.64
2022-10-17T08:12:54.729Z,18.70
2022-10-17T08:13:57.275Z,18.73
2022-10-17T08:14:58.808Z,18.78
2022-10-17T08:16:02.194Z,18.82
2022-10-17T08:17:03.712Z,18.85
2022-10-17T08:18:07.560Z,18.88
2022-10-17T08:19:11.294Z,18.92
2022-10-17T08:20:13.995Z,18.93
2022-10-17T08:21:16.480Z,18.96
2022-10-17T08:22:18.218Z,18.99
2022-10-17T08:23:20.826Z,19.00
2022-10-17T08:24:22.654Z,19.02
2022-10-17T08:25:25.384Z,19.05
2022-10-17T08:26:27.904Z,19.08
2022-10-17T08:27:31.260Z,19.12
2022-10-17T08:28:34.985Z,19.13
2022-10-17T08:29:37.684Z,19.14
2022-10-17T08:30:39.572Z,19.15
2022-10-17T08:31:46.545Z,19.16
2022-10-17T08:32:49.803Z,19.15
2022-10-17T08:33:53.700Z,19.16
2022-10-17T08:34:56.089Z,19.16
2022-10-17T08:35:59.779Z,19.15
2022-10-17T08:37:01.414Z,19.15
2022-10-17T08:38:04.159Z,19.16
2022-10-17T08:39:06.660Z,19.17
2022-10-17T08:40:15.884Z,19.16
2022-10-17T08:41:38.111Z,19.14
2022-10-17T08:42:55.809Z,19.12
2022-10-17T08:44:07.746Z,19.13
2022-10-17T08:45:18.116Z,19.13
2022-10-17T08:46:20.184Z,19.14
2022-10-17T08:47:30.029Z,19.17
2022-10-17T08:48:36.544Z,19.20
2022-10-17T08:49:46.881Z,19.23
2022-10-17T08:50:52.939Z,19.27
2022-10-17T08:52:00.587Z,19.27
2022-10-17T08:53:09.849Z,19.30
2022-10-17T08:54:15.878Z,19.30
2022-10-17T08:55:33.189Z,19.33
2022-10-17T08:56:48.972Z,19.33
2022-10-17T08:57:51.206Z,19.33
2022-10-17T08:58:54.266Z,19.35
2022-10-17T08:59:56.728Z,19.36
2022-10-17T09:01:11.950Z,19.37
2022-10-17T09:02:31.176Z,19.38
2022-10-17T09:03:57.456Z,19.40
2022-10-17T09:05:26.378Z,19.43
2022-10-17T09:06:34.157Z,19.45
2022-10-17T09:07:45.298Z,19.47
2022-10-17T09:08:59.357Z,19.47
2022-10-17T09:10:10.383Z,19.50
2022-10-17T09:11:23.305Z,19.53
2022-10-17T09:12:31.854Z,19.57
2022-10-17T09:13:55.993Z,19.61
2022-10-17T09:15:17.800Z,19.67
2022-10-17T09:16:48.639Z,19.73
2022-10-17T09:17:56.853Z,19.78
2022-10-17T09:19:05.296Z,19.85
2022-10-17T09:20:13.975Z,19.91
2022-10-17T09:21:24.114Z,19.96
2022-10-17T09:22:30.819Z,20.01
2022-10-17T09:23:43.365Z,20.04
2022-10-17T09:24:49.153Z,20.08
2022-10-17T09:25:55.167Z,20.12
2022-10-17T09:26:57.879Z,20.15
2022-10-17T09:28:13.101Z,20.18
2022-10-17T09:29:23.430Z,20.21
2022-10-17T09:30:51.574Z,20.25
2022-10-17T09:32:00.673Z,20.25
2022-10-17T09:33:23.104Z,20.29
2022-10-17T09:34:34.389Z,20.29
2022-10-17T09:35:39.288Z,20.31
2022-10-17T09:36:40.850Z,20.33
2022-10-17T09:37:46.049Z,20.35
2022-10-17T09:38:53.562Z,20.34
2022-10-17T09:39:55.153Z,20.33
2022-10-17T09:41:01.437Z,20.34
2022-10-17T09:42:04.532Z,20.33
2022-10-17T09:43:07.845Z,20.35
2022-10-17T09:44:18.352Z,20.36
2022-10-17T09:45:25.791Z,20.36
2022-10-17T09:46:34.875Z,20.39
2022-10-17T09:47:42.137Z,20.41
2022-10-17T09:48:52.484Z,20.42
2022-10-17T09:49:56.112Z,20.45
2022-10-17T09:51:14.584Z,20.47
2022-10-17T09:52:30.495Z,20.47
2022-10-17T09:53:36.655Z,20.49
2022-10-17T09:54:44.595Z,20.50
2022-10-17T09:55:50.851Z,20.50
2022-10-17T09:57:01.382Z,20.50
2022-10-17T09:58:05.814Z,20.50
2022-10-17T09:59:13.808Z,20.49
2022-10-17T10:00:22.793Z,20.47
2022-10-17T10:01:28.881Z,20.47
2022-10-17T10:02:32.732Z,20.46
2022-10-17T10:03:35.605Z,20.47
2022-10-17T10:04:59.715Z,20.47
2022-10-17T10:06:04.241Z,20.46
2022-10-17T10:07:12.091Z,20.47
2022-10-17T10:08:17.080Z,20.45
2022-10-17T10:09:31.588Z,20.44
2022-10-17T10:10:33.684Z,20.41
2022-10-17T10:11:48.713Z,20.38
2022-10-17T10:13:05.285Z,20.36
2022-10-17T10:14:13.382Z,20.34
2022-10-17T10:15:34.256Z,20.31
2022-10-17T10:16:43.444Z,20.30
2022-10-17T10:17:45.970Z,20.31
2022-10-17T10:18:50.992Z,20.33
2022-10-17T10:19:53.698Z,20.37
2022-10-17T10:21:07.900Z,20.39
2022-10-17T10:22:17.064Z,20.43
2022-10-17T10:23:21.281Z,20.46
2022-10-17T10:24:30.338Z,20.49
2022-10-17T10:25:33.123Z,20.52
2022-10-17T10:26:40.000Z,20.56
2022-10-17T10:27:43.567Z,20.58
2022-10-17T10:28:53.972Z,20.61
2022-10-17T10:29:56.660Z,20.63
2022-10-17T10:31:04.564Z,20.65
2022-10-17T10:32:12.846Z,20.66
2022-10-17T10:33:14.544Z,20.68
2022-10-17T10:34:21.303Z,20.71
2022-10-17T10:35:30.398Z,20.70
2022-10-17T10:36:57.829Z,20.70
2022-10-17T10:38:03.026Z,20.73
2022-10-17T10:39:06.125Z,20.74
2022-10-17T10:40:19.699Z,20.75
2022-10-17T10:41:22.260Z,20.77
2022-10-17T10:42:29.244Z,20.81
2022-10-17T10:43:35.906Z,20.83
2022-10-17T10:44:41.952Z,20.85
2022-10-17T10:45:47.853Z,20.89
2022-10-17T10:47:07.873Z,20.89
2022-10-17T10:48:21.676Z,20.87
2022-10-17T10:49:30.571Z,20.87
2022-10-17T10:50:40.599Z,20.84
2022-10-17T10:51:47.931Z,20.82
2022-10-17T10:52:59.984Z,20.79
2022-10-17T10:54:08.680Z,20.79
2022-10-17T10:55:24.566Z,20.79
2022-10-17T10:56:32.132Z,20.79
2022-10-17T10:57:38.628Z,20.78
2022-10-17T10:58:50.578Z,20.76
2022-10-17T11:00:01.126Z,20.75
2022-10-17T11:01:14.218Z,20.74
2022-10-17T11:02:23.301Z,20.72
2022-10-17T11:03:32.994Z,20.71
2022-10-17T11:06:46.185Z,20.66
2022-10-17T11:07:59.647Z,20.67
2022-10-17T11:09:13.246Z,20.65
2022-10-17T11:10:21.352Z,20.67
2022-10-17T11:11:30.406Z,20.67
2022-10-17T11:12:37.375Z,20.67
2022-10-17T11:13:43.210Z,20.67
2022-10-17T11:14:50.478Z,20.66
2022-10-17T11:15:59.984Z,20.68
2022-10-17T11:17:10.986Z,20.67
2022-10-17T11:18:22.063Z,20.69
2022-10-17T11:19:30.477Z,20.70
2022-10-17T11:20:38.304Z,20.73
2022-10-17T11:21:47.792Z,20.76
2022-10-17T11:22:57.440Z,20.77
2022-10-17T11:24:09.036Z,20.79
2022-10-17T11:25:23.118Z,20.79
2022-10-17T11:26:29.123Z,20.79
2022-10-17T11:27:31.707Z,20.79
2022-10-17T11:28:34.399Z,20.79
2022-10-17T11:29:39.905Z,20.78
2022-10-17T11:30:52.662Z,20.78
2022-10-17T11:31:58.267Z,20.78
2022-10-17T11:33:04.288Z,20.77
2022-10-17T11:34:11.474Z,20.78
2022-10-17T11:35:20.726Z,20.78
2022-10-17T11:36:28.353Z,20.79
2022-10-17T11:37:35.944Z,20.79
2022-10-17T11:38:47.014Z,20.82
2022-10-17T11:39:54.991Z,20.85
2022-10-17T11:40:59.266Z,20.88
2022-10-17T11:42:07.021Z,20.92
2022-10-17T11:43:14.804Z,20.96
2022-10-17T11:44:23.419Z,21.00
2022-10-17T11:45:29.000Z,21.01
2022-10-17T11:46:35.821Z,21.03
2022-10-17T11:47:44.900Z,21.05
2022-10-17T11:49:03.315Z,21.06
2022-10-17T11:52:02.830Z,21.05
2022-10-17T11:53:11.689Z,21.05
2022-10-17T11:54:19.748Z,21.06
2022-10-17T11:55:25.566Z,21.08
2022-10-17T11:56:41.877Z,21.09
2022-10-17T11:57:59.371Z,21.07
2022-10-17T11:59:23.101Z,21.06
2022-10-17T12:00:39.258Z,21.03
2022-10-17T12:01:51.120Z,21.01
2022-10-17T12:03:06.340Z,21.00
2022-10-17T12:04:44.831Z,20.95
2022-10-17T12:05:59.289Z,20.91
2022-10-17T12:07:13.773Z,20.89
2022-10-17T12:08:26.068Z,20.87
2022-10-17T12:09:41.178Z,20.83
2022-10-17T12:10:48.658Z,20.82
2022-10-17T12:11:54.722Z,20.81
2022-10-17T12:12:56.373Z,20.81
2022-10-17T12:14:00.063Z,20.81
2022-10-17T12:15:30.184Z,20.79
2022-10-17T12:16:50.876Z,20.78
2022-10-17T12:17:56.684Z,20.76
2022-10-17T12:19:33.830Z,20.76
2022-10-17T12:20:37.406Z,20.73
2022-10-17T12:21:54.997Z,20.72
2022-10-17T12:23:05.447Z,20.73
2022-10-17T12:24:28.822Z,20.72
2022-10-17T12:25:34.919Z,20.73
2022-10-17T12:26:36.495Z,20.73
2022-10-17T12:27:45.832Z,20.75
2022-10-17T12:28:49.237Z,20.74
2022-10-17T12:29:59.472Z,20.73
2022-10-17T12:31:05.626Z,20.72
2022-10-17T12:32:11.452Z,20.72
2022-10-17T12:33:22.193Z,20.70
2022-10-17T12:34:24.359Z,20.68
2022-10-17T12:35:28.728Z,20.67
2022-10-17T12:36:39.771Z,20.64
2022-10-17T12:38:31.883Z,20.60
2022-10-17T12:39:42.666Z,20.55
2022-10-17T12:40:52.011Z,20.52
2022-10-17T12:41:54.875Z,20.51
2022-10-17T12:42:56.466Z,20.49
2022-10-17T12:43:59.052Z,20.49
2022-10-17T12:45:00.722Z,20.49
2022-10-17T12:46:04.126Z,20.48
2022-10-17T12:47:38.016Z,20.46
2022-10-17T12:49:00.689Z,20.42
2022-10-17T12:50:03.251Z,20.44
2022-10-17T12:52:55.889Z,20.43
2022-10-17T12:53:59.951Z,20.44
2022-10-17T12:55:14.703Z,20.44
2022-10-17T12:56:22.405Z,20.46
2022-10-17T12:57:32.014Z,20.46
2022-10-17T12:58:36.224Z,20.46
2022-10-17T12:59:37.788Z,20.47
2022-10-17T13:00:59.491Z,20.48
2022-10-17T13:02:18.751Z,20.48
2022-10-17T13:03:24.624Z,20.48
2022-10-17T13:04:27.542Z,20.47
2022-10-17T13:05:33.928Z,20.48
2022-10-17T13:06:44.486Z,20.48
2022-10-17T13:07:48.870Z,20.50
2022-10-17T13:09:02.448Z,20.50
2022-10-17T13:10:07.811Z,20.48
2022-10-17T13:11:10.413Z,20.49
2022-10-17T13:12:23.855Z,20.49
2022-10-17T13:13:41.636Z,20.51
2022-10-17T13:14:45.966Z,20.52
2022-10-17T13:15:49.199Z,20.55
2022-10-17T13:16:53.016Z,20.56
2022-10-17T13:17:58.510Z,20.56
2022-10-17T13:19:01.642Z,20.57
2022-10-17T13:20:04.999Z,20.57
2022-10-17T13:21:15.819Z,20.58
2022-10-17T13:22:20.073Z,20.57
2022-10-17T13:23:24.125Z,20.57
2022-10-17T13:24:31.797Z,20.57
2022-10-17T13:25:38.821Z,20.57
2022-10-17T13:26:45.656Z,20.56
2022-10-17T13:27:50.742Z,20.57
2022-10-17T13:29:02.818Z,20.56
2022-10-17T13:30:27.952Z,20.55
2022-10-17T13:31:36.302Z,20.53
2022-10-17T13:32:39.569Z,20.54
2022-10-17T13:33:42.384Z,20.53
2022-10-17T13:34:44.020Z,20.54
2022-10-17T13:36:00.076Z,20.54
2022-10-17T13:37:07.710Z,20.53
2022-10-17T13:38:12.516Z,20.52
2022-10-17T13:39:23.159Z,20.54
2022-10-17T13:40:49.902Z,20.52
2022-10-17T13:41:55.470Z,20.53
2022-10-17T13:43:01.974Z,20.56
2022-10-17T13:44:10.241Z,20.56
2022-10-17T13:45:19.535Z,20.58
2022-10-17T13:46:37.314Z,20.58
2022-10-17T13:47:42.383Z,20.61
2022-10-17T13:48:44.996Z,20.62
2022-10-17T13:49:49.490Z,20.64
2022-10-17T13:50:58.147Z,20.68
2022-10-17T13:52:07.367Z,20.69
2022-10-17T13:53:18.593Z,20.71
2022-10-17T13:54:34.239Z,20.73
2022-10-17T13:55:35.864Z,20.76
2022-10-17T13:56:38.410Z,20.79
2022-10-17T13:57:41.078Z,20.82
2022-10-17T13:58:45.861Z,20.84
2022-10-17T13:59:51.362Z,20.85
2022-10-17T14:00:53.921Z,20.86
2022-10-17T14:01:57.147Z,20.86
2022-10-17T14:02:58.733Z,20.87
2022-10-17T14:04:08.917Z,20.87
2022-10-17T14:05:18.911Z,20.88
2022-10-17T14:06:24.194Z,20.88
2022-10-17T14:07:46.294Z,20.88
2022-10-17T14:08:59.500Z,20.88
2022-10-17T14:10:01.476Z,20.89
2022-10-17T14:11:04.573Z,20.90
2022-10-17T14:12:12.638Z,20.92
2022-10-17T14:13:22.025Z,20.93
2022-10-17T14:14:27.139Z,20.94
2022-10-17T14:15:31.305Z,20.96
2022-10-17T14:16:39.752Z,20.95
2022-10-17T14:17:43.813Z,20.95
2022-10-17T14:18:49.253Z,20.96
2022-10-17T14:20:06.495Z,20.95
2022-10-17T14:22:50.426Z,20.92
2022-10-17T14:24:15.842Z,20.91
2022-10-17T14:25:29.814Z,20.91